createdAt,value
2023-04-29T00:00:13.773Z,13.10
2023-04-29T00:01:14.261Z,14.50
2023-04-29T00:02:14.788Z,32.10
2023-04-29T00:03:15.426Z,16.40
2023-04-29T00:04:15.548Z,5.60
2023-04-29T00:05:15.876Z,58.50
2023-04-29T00:06:16.145Z,18.80
2023-04-29T00:07:16.093Z,10.70
2023-04-29T00:08:16.583Z,16.60
2023-04-29T00:09:17.046Z,5.40
2023-04-29T00:10:17.512Z,47.40
2023-04-29T00:11:18.007Z,30.40
2023-04-29T00:12:18.501Z,17.50
2023-04-29T00:13:19.050Z,24.30
2023-04-29T00:14:18.955Z,10.30
2023-04-29T00:15:19.429Z,20.90
2023-04-29T00:16:19.922Z,16.60
2023-04-29T00:17:20.433Z,22.70
2023-04-29T00:18:20.930Z,19.60
2023-04-29T00:19:21.396Z,12.70
2023-04-29T00:20:21.854Z,12.10
2023-04-29T00:21:22.346Z,12.40
2023-04-29T00:22:22.893Z,19.00
2023-04-29T00:23:23.425Z,10.90
2023-04-29T00:24:23.876Z,8.70
2023-04-29T00:25:24.320Z,13.90
2023-04-29T00:26:24.814Z,20.00
2023-04-29T00:27:25.305Z,10.20
2023-04-29T00:28:25.877Z,8.90
2023-04-29T00:29:26.325Z,7.80
2023-04-29T00:30:26.809Z,7.80
2023-04-29T00:31:27.288Z,8.00
2023-04-29T00:32:27.774Z,7.00
2023-04-29T00:33:28.275Z,5.40
2023-04-29T00:34:28.731Z,13.70
2023-04-29T00:35:29.220Z,20.60
2023-04-29T00:36:29.699Z,17.10
2023-04-29T00:37:30.151Z,9.30
2023-04-29T00:38:30.613Z,6.30
2023-04-29T00:39:31.035Z,47.60
2023-04-29T00:40:31.441Z,22.00
2023-04-29T00:41:31.868Z,75.70
2023-04-29T00:42:32.344Z,51.20
2023-04-29T00:43:32.865Z,103.30
2023-04-29T00:44:33.356Z,10.50
2023-04-29T00:45:33.792Z,7.70
2023-04-29T00:46:34.271Z,74.20
2023-04-29T00:47:34.370Z,98.30
2023-04-29T00:48:34.302Z,71.70
2023-04-29T00:49:34.787Z,10.80
2023-04-29T00:50:35.255Z,11.00
2023-04-29T00:51:35.682Z,19.70
2023-04-29T00:52:36.117Z,13.00
2023-04-29T00:53:36.549Z,12.30
2023-04-29T00:54:36.999Z,8.30
2023-04-29T00:55:37.409Z,7.90
2023-04-29T00:56:37.838Z,13.00
2023-04-29T00:57:38.289Z,16.60
2023-04-29T00:58:38.733Z,14.00
2023-04-29T00:59:39.207Z,12.70
2023-04-29T01:00:39.670Z,8.10
2023-04-29T01:01:40.154Z,5.40
2023-04-29T01:02:40.709Z,5.00
2023-04-29T01:03:40.800Z,19.10
2023-04-29T01:04:40.788Z,12.50
2023-04-29T01:05:41.271Z,7.10
2023-04-29T01:06:41.671Z,4.00
2023-04-29T01:07:42.070Z,4.40
2023-04-29T01:08:42.471Z,7.80
2023-04-29T01:09:42.878Z,6.30
2023-04-29T01:10:43.288Z,11.30
2023-04-29T01:11:43.712Z,8.70
2023-04-29T01:12:44.121Z,15.80
2023-04-29T01:13:44.594Z,20.60
2023-04-29T01:14:45.025Z,8.70
2023-04-29T01:15:45.472Z,11.90
2023-04-29T01:16:45.993Z,16.40
2023-04-29T01:17:46.526Z,7.30
2023-04-29T01:18:46.997Z,10.30
2023-04-29T01:19:47.448Z,14.30
2023-04-29T01:20:47.902Z,7.40
2023-04-29T01:21:48.362Z,10.20
2023-04-29T01:22:48.809Z,25.60
2023-04-29T01:23:49.240Z,55.40
2023-04-29T01:24:49.697Z,36.70
2023-04-29T01:25:50.164Z,26.40
2023-04-29T01:26:50.616Z,17.40
2023-04-29T01:27:51.074Z,11.00
2023-04-29T01:28:51.521Z,43.00
2023-04-29T01:29:52.230Z,35.50
2023-04-29T01:30:52.196Z,28.90
2023-04-29T01:31:52.830Z,60.70
2023-04-29T01:32:52.963Z,55.30
2023-04-29T01:33:52.856Z,53.50
2023-04-29T01:34:53.332Z,46.90
2023-04-29T01:35:53.766Z,59.30
2023-04-29T01:36:54.251Z,76.30
2023-04-29T01:37:54.729Z,33.90
2023-04-29T01:38:55.189Z,24.70
2023-04-29T01:39:55.799Z,4.90
2023-04-29T01:40:55.581Z,48.80
2023-04-29T01:41:56.022Z,37.70
2023-04-29T01:42:56.462Z,39.40
2023-04-29T01:43:56.912Z,52.10
2023-04-29T01:44:57.361Z,46.40
2023-04-29T01:45:57.806Z,50.00
2023-04-29T01:46:58.282Z,37.90
2023-04-29T01:47:58.909Z,23.30
2023-04-29T01:48:58.838Z,26.10
2023-04-29T01:49:59.293Z,37.10
2023-04-29T01:50:59.748Z,18.30
2023-04-29T01:52:00.199Z,34.10
2023-04-29T01:53:00.671Z,26.80
2023-04-29T01:54:01.150Z,86.10
2023-04-29T01:55:01.647Z,44.60
2023-04-29T01:56:02.094Z,20.90
2023-04-29T01:57:02.553Z,14.60
2023-04-29T01:58:02.965Z,6.60
2023-04-29T01:59:03.416Z,37.80
2023-04-29T02:00:03.873Z,19.60
2023-04-29T02:01:04.332Z,5.60
2023-04-29T02:02:04.785Z,5.50
2023-04-29T02:03:05.282Z,8.90
2023-04-29T02:04:05.876Z,4.80
2023-04-29T02:05:05.835Z,4.20
2023-04-29T02:06:06.269Z,11.50
2023-04-29T02:07:06.729Z,11.90
2023-04-29T02:08:07.152Z,9.70
2023-04-29T02:09:07.566Z,6.90
2023-04-29T02:10:07.991Z,18.60
2023-04-29T02:11:08.446Z,58.90
2023-04-29T02:12:08.898Z,20.20
2023-04-29T02:13:09.358Z,14.00
2023-04-29T02:14:09.799Z,14.40
2023-04-29T02:15:10.261Z,29.60
2023-04-29T02:16:10.731Z,54.40
2023-04-29T02:17:11.207Z,8.10
2023-04-29T02:18:11.667Z,31.60
2023-04-29T02:19:12.136Z,22.90
2023-04-29T02:20:12.596Z,15.80
2023-04-29T02:21:13.030Z,22.60
2023-04-29T02:22:13.469Z,44.80
2023-04-29T02:23:13.916Z,20.50
2023-04-29T02:24:14.362Z,34.70
2023-04-29T02:25:14.810Z,42.20
2023-04-29T02:26:15.249Z,36.30
2023-04-29T02:27:15.694Z,37.40
2023-04-29T02:28:16.148Z,41.30
2023-04-29T02:29:16.640Z,42.70
2023-04-29T02:30:17.115Z,39.50
2023-04-29T02:31:17.563Z,29.50
2023-04-29T02:32:18.036Z,23.40
2023-04-29T02:33:18.492Z,23.40
2023-04-29T02:34:18.944Z,27.10
2023-04-29T02:35:19.384Z,28.70
2023-04-29T02:36:19.842Z,22.60
2023-04-29T02:37:20.303Z,18.00
2023-04-29T02:38:20.766Z,22.10
2023-04-29T02:39:21.221Z,8.50
2023-04-29T02:40:21.650Z,16.80
2023-04-29T02:41:22.116Z,17.60
2023-04-29T02:42:22.586Z,25.20
2023-04-29T02:43:23.066Z,29.60
2023-04-29T02:44:23.540Z,11.70
2023-04-29T02:45:24.002Z,12.40
2023-04-29T02:46:24.534Z,5.80
2023-04-29T02:47:24.545Z,14.70
2023-04-29T02:48:24.438Z,7.80
2023-04-29T02:49:24.854Z,9.50
2023-04-29T02:50:25.309Z,13.20
2023-04-29T02:51:25.750Z,9.20
2023-04-29T02:52:26.157Z,14.40
2023-04-29T02:53:26.661Z,8.50
2023-04-29T02:54:27.075Z,7.00
2023-04-29T02:55:27.491Z,11.60
2023-04-29T02:56:27.938Z,16.70
2023-04-29T02:57:28.370Z,20.30
2023-04-29T02:58:28.817Z,16.80
2023-04-29T02:59:29.272Z,15.00
2023-04-29T03:00:29.758Z,16.20
2023-04-29T03:01:30.261Z,29.20
2023-04-29T03:02:30.873Z,15.30
2023-04-29T03:03:30.954Z,9.70
2023-04-29T03:04:31.002Z,14.70
2023-04-29T03:05:30.934Z,13.10
2023-04-29T03:06:31.363Z,11.90
2023-04-29T03:07:31.791Z,6.60
2023-04-29T03:08:32.205Z,10.10
2023-04-29T03:09:32.644Z,10.80
2023-04-29T03:10:33.073Z,13.60
2023-04-29T03:11:33.527Z,18.50
2023-04-29T03:12:33.969Z,13.10
2023-04-29T03:13:34.412Z,9.80
2023-04-29T03:14:34.854Z,10.80
2023-04-29T03:15:35.310Z,16.10
2023-04-29T03:16:35.815Z,18.10
2023-04-29T03:17:36.320Z,17.50
2023-04-29T03:18:36.779Z,11.60
2023-04-29T03:19:37.248Z,13.00
2023-04-29T03:20:37.671Z,14.50
2023-04-29T03:21:38.110Z,12.00
2023-04-29T03:22:38.561Z,33.90
2023-04-29T03:23:39.010Z,24.50
2023-04-29T03:24:39.459Z,18.00
2023-04-29T03:25:39.927Z,13.40
2023-04-29T03:26:40.384Z,11.00
2023-04-29T03:27:40.795Z,6.10
2023-04-29T03:28:41.230Z,10.00
2023-04-29T03:29:41.676Z,13.80
2023-04-29T03:30:42.081Z,8.40
2023-04-29T03:31:42.619Z,11.20
2023-04-29T03:32:42.622Z,18.90
2023-04-29T03:33:43.069Z,26.40
2023-04-29T03:34:43.519Z,12.70
2023-04-29T03:35:43.975Z,30.50
2023-04-29T03:36:44.412Z,17.90
2023-04-29T03:37:44.877Z,23.60
2023-04-29T03:38:45.321Z,17.70
2023-04-29T03:39:45.773Z,20.50
2023-04-29T03:40:46.221Z,25.80
2023-04-29T03:41:46.686Z,31.80
2023-04-29T03:42:47.170Z,15.40
2023-04-29T03:43:47.643Z,18.30
2023-04-29T03:44:48.110Z,13.90
2023-04-29T03:45:48.588Z,20.90
2023-04-29T03:46:49.077Z,16.30
2023-04-29T03:47:49.622Z,43.10
2023-04-29T03:48:50.113Z,28.60
2023-04-29T03:49:50.889Z,-1.00
2023-04-29T03:50:51.012Z,23.20
2023-04-29T03:51:51.482Z,24.50
2023-04-29T03:52:51.938Z,25.00
2023-04-29T03:53:52.410Z,38.50
2023-04-29T03:54:52.906Z,30.60
2023-04-29T03:55:53.351Z,15.60
2023-04-29T03:56:54.678Z,34.00
2023-04-29T03:57:54.070Z,12.10
2023-04-29T03:58:54.545Z,27.30
2023-04-29T03:59:55.164Z,65.90
2023-04-29T04:00:55.130Z,39.70
2023-04-29T04:01:55.679Z,59.60
2023-04-29T04:02:55.746Z,27.30
2023-04-29T04:03:55.853Z,50.60
2023-04-29T04:04:55.978Z,51.90
2023-04-29T04:05:55.948Z,23.80
2023-04-29T04:06:56.449Z,22.60
2023-04-29T04:07:56.946Z,30.80
2023-04-29T04:08:57.411Z,24.40
2023-04-29T04:09:57.856Z,30.50
2023-04-29T04:10:58.306Z,35.10
2023-04-29T04:11:58.763Z,28.80
2023-04-29T04:12:59.252Z,34.20
2023-04-29T04:13:59.713Z,33.90
2023-04-29T04:15:00.178Z,20.70
2023-04-29T04:16:00.644Z,29.00
2023-04-29T04:17:01.122Z,18.70
2023-04-29T04:18:01.719Z,24.80
2023-04-29T04:19:01.694Z,24.20
2023-04-29T04:20:02.162Z,23.40
2023-04-29T04:21:02.658Z,20.00
2023-04-29T04:22:03.127Z,15.80
2023-04-29T04:23:03.585Z,21.40
2023-04-29T04:24:04.037Z,13.40
2023-04-29T04:25:04.502Z,14.40
2023-04-29T04:26:04.984Z,28.50
2023-04-29T04:27:05.460Z,24.50
2023-04-29T04:28:05.923Z,21.30
2023-04-29T04:29:06.449Z,17.90
2023-04-29T04:30:06.944Z,14.30
2023-04-29T04:31:07.495Z,26.00
2023-04-29T04:32:07.592Z,28.60
2023-04-29T04:33:07.703Z,44.10
2023-04-29T04:34:07.655Z,32.50
2023-04-29T04:35:08.133Z,27.00
2023-04-29T04:36:08.623Z,90.60
2023-04-29T04:37:09.118Z,35.40
2023-04-29T04:38:09.628Z,30.50
2023-04-29T04:39:10.130Z,29.70
2023-04-29T04:40:10.596Z,42.10
2023-04-29T04:41:11.072Z,55.00
2023-04-29T04:42:11.600Z,47.10
2023-04-29T04:43:12.076Z,32.40
2023-04-29T04:44:12.558Z,56.30
2023-04-29T04:45:13.040Z,27.10
2023-04-29T04:46:13.828Z,27.60
2023-04-29T04:47:13.717Z,61.60
2023-04-29T04:48:14.196Z,34.90
2023-04-29T04:49:14.673Z,54.30
2023-04-29T04:50:15.149Z,55.80
2023-04-29T04:51:15.628Z,64.50
2023-04-29T04:52:16.126Z,51.00
2023-04-29T04:53:16.586Z,39.70
2023-04-29T04:54:17.043Z,41.20
2023-04-29T04:55:17.525Z,47.50
2023-04-29T04:56:18.043Z,78.70
2023-04-29T04:57:18.532Z,73.30
2023-04-29T04:58:19.058Z,94.70
2023-04-29T04:59:19.622Z,109.10
2023-04-29T05:00:19.613Z,130.30
2023-04-29T05:01:19.653Z,145.60
2023-04-29T05:02:19.768Z,129.70
2023-04-29T05:03:19.899Z,140.80
2023-04-29T05:04:20.126Z,156.80
2023-04-29T05:05:20.282Z,126.10
2023-04-29T05:06:20.842Z,99.70
2023-04-29T05:07:21.392Z,90.50
2023-04-29T05:08:21.946Z,94.70
2023-04-29T05:09:22.475Z,89.70
2023-04-29T05:10:23.000Z,74.30
2023-04-29T05:11:23.563Z,60.60
2023-04-29T05:12:23.513Z,64.10
2023-04-29T05:13:24.033Z,59.30
2023-04-29T05:14:24.542Z,19.90
2023-04-29T05:15:25.069Z,54.00
2023-04-29T05:16:25.591Z,40.70
2023-04-29T05:17:26.168Z,45.60
2023-04-29T05:18:26.131Z,57.00
2023-04-29T05:19:26.670Z,40.30
2023-04-29T05:20:27.203Z,36.30
2023-04-29T05:21:27.704Z,34.30
2023-04-29T05:22:28.198Z,16.50
2023-04-29T05:23:28.685Z,18.70
2023-04-29T05:24:29.188Z,61.10
2023-04-29T05:25:29.737Z,35.20
2023-04-29T05:26:30.271Z,77.90
2023-04-29T05:27:30.812Z,60.80
2023-04-29T05:28:31.339Z,66.00
2023-04-29T05:29:31.870Z,173.60
2023-04-29T05:30:32.436Z,87.20
2023-04-29T05:31:32.962Z,75.50
2023-04-29T05:32:33.508Z,48.20
2023-04-29T05:33:34.026Z,23.30
2023-04-29T05:34:34.495Z,22.30
2023-04-29T05:35:34.972Z,12.30
2023-04-29T05:36:35.590Z,7.20
2023-04-29T05:37:35.574Z,13.90
2023-04-29T05:38:35.386Z,6.00
2023-04-29T05:39:35.846Z,13.70
2023-04-29T05:40:36.340Z,14.10
2023-04-29T05:41:36.879Z,24.50
2023-04-29T05:42:37.416Z,13.70
2023-04-29T05:43:37.929Z,11.90
2023-04-29T05:44:38.419Z,14.20
2023-04-29T05:45:38.946Z,14.50
2023-04-29T05:46:39.515Z,16.90
2023-04-29T05:47:40.045Z,7.40
2023-04-29T05:48:40.552Z,34.20
2023-04-29T05:49:41.015Z,10.20
2023-04-29T05:50:41.451Z,6.70
2023-04-29T05:51:41.935Z,6.30
2023-04-29T05:52:42.438Z,7.10
2023-04-29T05:53:42.924Z,7.10
2023-04-29T05:54:43.412Z,6.30
2023-04-29T05:55:43.862Z,5.60
2023-04-29T05:56:44.327Z,6.10
2023-04-29T05:57:44.787Z,8.10
2023-04-29T05:58:45.281Z,7.30
2023-04-29T05:59:45.766Z,8.70
2023-04-29T06:00:46.276Z,11.70
2023-04-29T06:01:46.760Z,8.70
2023-04-29T06:02:57.507Z,8.80
2023-04-29T06:03:47.633Z,10.20
2023-04-29T06:04:47.984Z,7.60
2023-04-29T06:05:48.331Z,9.20
2023-04-29T06:06:48.478Z,12.30
2023-04-29T06:07:48.975Z,9.30
2023-04-29T06:08:49.446Z,8.30
2023-04-29T06:09:49.913Z,7.80
2023-04-29T06:10:50.410Z,7.90
2023-04-29T06:11:50.879Z,8.50
2023-04-29T06:12:51.361Z,8.00
2023-04-29T06:13:51.844Z,9.10
2023-04-29T06:14:52.320Z,8.80
2023-04-29T06:15:52.852Z,9.00
2023-04-29T06:16:52.777Z,6.00
2023-04-29T06:17:53.279Z,9.20
2023-04-29T06:18:53.228Z,7.80
2023-04-29T06:19:54.021Z,8.50
2023-04-29T06:20:54.182Z,10.40
2023-04-29T06:21:54.649Z,8.90
2023-04-29T06:22:55.179Z,11.00
2023-04-29T06:23:56.128Z,9.50
2023-04-29T06:24:55.428Z,9.90
2023-04-29T06:25:55.892Z,9.60
2023-04-29T06:26:55.869Z,115.80
2023-04-29T06:27:56.380Z,10.50
2023-04-29T06:28:56.383Z,8.80
2023-04-29T06:29:56.861Z,9.20
2023-04-29T06:30:57.341Z,7.70
2023-04-29T06:31:57.895Z,45.00
2023-04-29T06:32:57.913Z,8.60
2023-04-29T06:33:57.843Z,8.80
2023-04-29T06:34:58.331Z,9.70
2023-04-29T06:35:58.808Z,9.80
2023-04-29T06:36:58.798Z,78.40
2023-04-29T06:37:58.780Z,52.90
2023-04-29T06:38:58.726Z,55.30
2023-04-29T06:39:59.259Z,53.10
2023-04-29T06:40:59.229Z,55.20
2023-04-29T06:41:59.183Z,10.80
2023-04-29T06:42:59.707Z,72.60
2023-04-29T06:44:00.164Z,9.00
2023-04-29T06:45:00.659Z,54.50
2023-04-29T06:46:01.174Z,24.80
2023-04-29T06:47:01.728Z,28.90
2023-04-29T06:48:01.715Z,7.90
2023-04-29T06:49:01.620Z,9.20
2023-04-29T06:50:02.047Z,9.00
2023-04-29T06:51:02.515Z,9.80
2023-04-29T06:52:03.016Z,9.90
2023-04-29T06:53:02.955Z,16.60
2023-04-29T06:54:02.906Z,17.30
2023-04-29T06:55:02.852Z,16.20
2023-04-29T06:56:02.842Z,13.40
2023-04-29T06:57:02.819Z,12.60
2023-04-29T06:58:02.797Z,13.00
2023-04-29T06:59:02.769Z,16.80
2023-04-29T07:00:02.734Z,12.80
2023-04-29T07:01:02.747Z,13.50
2023-04-29T07:02:02.739Z,13.20
2023-04-29T07:03:02.765Z,18.20
2023-04-29T07:04:02.944Z,107.10
2023-04-29T07:05:03.108Z,13.10
2023-04-29T07:06:03.149Z,12.50
2023-04-29T07:07:03.118Z,13.30
2023-04-29T07:08:03.107Z,14.60
2023-04-29T07:09:03.072Z,14.20
2023-04-29T07:10:03.070Z,15.20
2023-04-29T07:11:03.068Z,13.70
2023-04-29T07:12:03.029Z,13.50
2023-04-29T07:13:02.991Z,13.60
2023-04-29T07:14:03.548Z,13.00
2023-04-29T07:15:03.513Z,14.80
2023-04-29T07:16:03.459Z,13.30
2023-04-29T07:17:03.531Z,12.80
2023-04-29T07:18:03.642Z,15.00
2023-04-29T07:19:03.634Z,11.70
2023-04-29T07:20:03.582Z,11.00
2023-04-29T07:21:03.554Z,11.20
2023-04-29T07:22:03.504Z,12.60
2023-04-29T07:23:03.452Z,12.00
2023-04-29T07:24:03.423Z,81.70
2023-04-29T07:25:03.372Z,12.70
2023-04-29T07:26:03.337Z,19.10
2023-04-29T07:27:03.284Z,11.50
2023-04-29T07:28:03.254Z,11.30
2023-04-29T07:29:03.204Z,10.20
2023-04-29T07:30:03.164Z,11.40
2023-04-29T07:31:03.198Z,11.50
2023-04-29T07:32:03.217Z,11.70
2023-04-29T07:33:03.235Z,10.50
2023-04-29T07:34:03.174Z,10.10
2023-04-29T07:35:03.113Z,10.80
2023-04-29T07:36:03.610Z,10.20
2023-04-29T07:37:04.117Z,9.60
2023-04-29T07:38:04.580Z,10.20
2023-04-29T07:39:05.004Z,10.10
2023-04-29T07:40:05.438Z,9.50
2023-04-29T07:41:05.892Z,9.70
2023-04-29T07:42:06.403Z,9.30
2023-04-29T07:43:06.889Z,10.10
2023-04-29T07:44:07.360Z,9.50
2023-04-29T07:45:07.809Z,8.80
2023-04-29T07:46:08.313Z,9.30
2023-04-29T07:47:08.274Z,172.20
2023-04-29T07:48:08.728Z,9.20
2023-04-29T07:49:09.164Z,32.60
2023-04-29T07:50:09.075Z,35.00
2023-04-29T07:51:09.572Z,25.10
2023-04-29T07:52:10.124Z,7.70
2023-04-29T07:53:10.062Z,14.00
2023-04-29T07:54:10.555Z,7.80
2023-04-29T07:55:10.459Z,14.00
2023-04-29T07:56:10.958Z,33.80
2023-04-29T07:57:11.416Z,12.50
2023-04-29T07:58:11.469Z,16.50
2023-04-29T07:59:11.928Z,6.20
2023-04-29T08:00:12.374Z,6.00
2023-04-29T08:01:12.897Z,10.80
2023-04-29T08:02:12.825Z,6.60
2023-04-29T08:03:12.746Z,28.60
2023-04-29T08:04:12.990Z,6.30
2023-04-29T08:05:13.263Z,5.40
2023-04-29T08:06:13.489Z,6.00
2023-04-29T08:07:13.372Z,4.70
2023-04-29T08:08:13.820Z,15.40
2023-04-29T08:09:14.259Z,5.00
2023-04-29T08:10:14.685Z,5.20
2023-04-29T08:11:15.163Z,12.10
2023-04-29T08:12:15.628Z,12.90
2023-04-29T08:13:16.081Z,12.70
2023-04-29T08:14:16.591Z,5.10
2023-04-29T08:15:17.066Z,9.90
2023-04-29T08:16:17.082Z,6.00
2023-04-29T08:17:17.532Z,13.70
2023-04-29T08:18:17.956Z,6.40
2023-04-29T08:19:18.360Z,5.00
2023-04-29T08:20:18.815Z,5.60
2023-04-29T08:21:19.247Z,5.80
2023-04-29T08:22:19.668Z,4.70
2023-04-29T08:23:20.131Z,5.40
2023-04-29T08:24:20.567Z,4.90
2023-04-29T08:25:20.987Z,5.40
2023-04-29T08:26:22.579Z,5.00
2023-04-29T08:27:21.483Z,4.90
2023-04-29T08:28:21.913Z,4.80
2023-04-29T08:29:22.354Z,4.20
2023-04-29T08:30:22.270Z,4.90
2023-04-29T08:31:22.709Z,4.90
2023-04-29T08:32:23.154Z,4.20
2023-04-29T08:33:23.212Z,4.60
2023-04-29T08:34:23.099Z,4.40
2023-04-29T08:35:23.514Z,17.80
2023-04-29T08:36:23.961Z,29.10
2023-04-29T08:37:24.395Z,5.10
2023-04-29T08:38:24.818Z,5.00
2023-04-29T08:39:25.296Z,28.60
2023-04-29T08:40:25.734Z,5.80
2023-04-29T08:41:26.192Z,10.30
2023-04-29T08:42:26.637Z,5.30
2023-04-29T08:43:27.092Z,9.40
2023-04-29T08:44:27.544Z,4.70
2023-04-29T08:45:28.014Z,4.60
2023-04-29T08:46:27.882Z,4.20
2023-04-29T08:47:28.326Z,4.20
2023-04-29T08:48:28.341Z,4.10
2023-04-29T08:49:28.207Z,3.80
2023-04-29T08:50:28.663Z,4.60
2023-04-29T08:51:29.110Z,4.00
2023-04-29T08:52:29.018Z,13.30
2023-04-29T08:53:29.570Z,21.00
2023-04-29T08:54:29.413Z,9.70
2023-04-29T08:55:29.556Z,9.80
2023-04-29T08:56:30.023Z,9.80
2023-04-29T08:57:30.471Z,4.60
2023-04-29T08:58:30.922Z,4.10
2023-04-29T08:59:31.358Z,5.50
2023-04-29T09:00:31.823Z,14.80
2023-04-29T09:01:32.318Z,27.00
2023-04-29T09:02:32.312Z,13.90
2023-04-29T09:03:32.264Z,14.80
2023-04-29T09:04:32.317Z,24.10
2023-04-29T09:05:32.254Z,36.10
2023-04-29T09:06:33.703Z,4.40
2023-04-29T09:07:33.219Z,4.10
2023-04-29T09:08:33.059Z,3.80
2023-04-29T09:09:33.488Z,6.20
2023-04-29T09:10:33.935Z,5.80
2023-04-29T09:11:34.359Z,4.60
2023-04-29T09:12:34.773Z,4.90
2023-04-29T09:13:35.181Z,3.90
2023-04-29T09:14:35.574Z,3.80
2023-04-29T09:15:35.984Z,5.10
2023-04-29T09:16:36.436Z,3.50
2023-04-29T09:17:36.889Z,4.30
2023-04-29T09:18:37.311Z,5.50
2023-04-29T09:19:37.722Z,5.00
2023-04-29T09:20:38.164Z,3.10
2023-04-29T09:21:38.583Z,3.50
2023-04-29T09:22:39.033Z,3.30
2023-04-29T09:23:39.469Z,5.70
2023-04-29T09:24:39.889Z,5.00
2023-04-29T09:25:40.307Z,4.60
2023-04-29T09:26:40.755Z,4.50
2023-04-29T09:27:41.212Z,3.70
2023-04-29T09:28:41.650Z,4.10
2023-04-29T09:29:42.077Z,3.40
2023-04-29T09:30:42.504Z,4.60
2023-04-29T09:31:42.975Z,4.00
2023-04-29T09:32:42.889Z,5.00
2023-04-29T09:33:43.318Z,4.50
2023-04-29T09:34:43.747Z,5.80
2023-04-29T09:35:44.151Z,5.70
2023-04-29T09:36:44.539Z,5.00
2023-04-29T09:37:44.938Z,5.90
2023-04-29T09:38:45.340Z,4.20
2023-04-29T09:39:45.750Z,3.50
2023-04-29T09:40:57.312Z,5.50
2023-04-29T09:41:46.237Z,4.80
2023-04-29T09:42:46.667Z,4.80
2023-04-29T09:43:47.090Z,4.60
2023-04-29T09:44:47.537Z,4.10
2023-04-29T09:45:48.082Z,3.40
2023-04-29T09:46:47.959Z,3.80
2023-04-29T09:47:48.418Z,5.70
2023-04-29T09:48:48.856Z,4.10
2023-04-29T09:49:49.289Z,5.80
2023-04-29T09:50:49.718Z,3.50
2023-04-29T09:51:50.150Z,5.00
2023-04-29T09:52:50.562Z,4.50
2023-04-29T09:53:50.988Z,4.60
2023-04-29T09:54:51.574Z,4.90
2023-04-29T09:55:51.616Z,8.00
2023-04-29T09:56:52.103Z,4.60
2023-04-29T09:57:53.510Z,3.30
2023-04-29T09:58:52.924Z,3.60
2023-04-29T09:59:52.923Z,3.50
2023-04-29T10:00:52.761Z,3.30
2023-04-29T10:01:53.350Z,4.10
2023-04-29T10:02:53.402Z,4.90
2023-04-29T10:03:53.392Z,3.70
2023-04-29T10:04:53.576Z,3.50
2023-04-29T10:05:53.734Z,5.30
2023-04-29T10:06:54.137Z,5.20
2023-04-29T10:07:54.558Z,3.60
2023-04-29T10:08:55.003Z,3.90
2023-04-29T10:09:55.518Z,3.80
2023-04-29T10:10:55.374Z,3.60
2023-04-29T10:11:55.777Z,7.60
2023-04-29T10:12:56.025Z,4.00
2023-04-29T10:13:56.473Z,3.70
2023-04-29T10:14:56.923Z,5.20
2023-04-29T10:15:57.392Z,3.50
2023-04-29T10:16:57.287Z,3.70
2023-04-29T10:17:57.697Z,3.00
2023-04-29T10:18:58.170Z,3.40
2023-04-29T10:19:58.053Z,3.60
2023-04-29T10:20:58.467Z,3.20
2023-04-29T10:21:58.866Z,4.80
2023-04-29T10:22:59.263Z,3.60
2023-04-29T10:23:59.678Z,3.00
2023-04-29T10:25:00.102Z,5.40
2023-04-29T10:26:00.326Z,3.40
2023-04-29T10:27:00.178Z,3.50
2023-04-29T10:28:01.132Z,4.00
2023-04-29T10:29:00.992Z,5.30
2023-04-29T10:30:01.434Z,2.90
2023-04-29T10:31:01.878Z,5.60
2023-04-29T10:32:02.319Z,4.40
2023-04-29T10:33:02.765Z,4.80
2023-04-29T10:34:03.209Z,4.10
2023-04-29T10:35:03.678Z,3.00
2023-04-29T10:36:04.114Z,3.10
2023-04-29T10:37:04.551Z,3.00
2023-04-29T10:38:04.973Z,3.60
2023-04-29T10:39:05.419Z,5.10
2023-04-29T10:40:05.845Z,3.70
2023-04-29T10:41:06.252Z,3.40
2023-04-29T10:42:06.696Z,3.00
2023-04-29T10:43:07.129Z,3.10
2023-04-29T10:44:07.542Z,5.20
2023-04-29T10:45:07.954Z,3.30
2023-04-29T10:46:08.412Z,3.40
2023-04-29T10:47:08.287Z,3.40
2023-04-29T10:48:08.850Z,4.10
2023-04-29T10:49:08.733Z,5.40
2023-04-29T10:50:09.373Z,5.00
2023-04-29T10:51:09.137Z,3.00
2023-04-29T10:52:09.569Z,3.20
2023-04-29T10:53:09.989Z,3.60
2023-04-29T10:54:10.416Z,2.40
2023-04-29T10:55:10.828Z,5.10
2023-04-29T10:56:11.350Z,4.90
2023-04-29T10:57:11.195Z,2.80
2023-04-29T10:58:11.592Z,3.30
2023-04-29T10:59:11.981Z,2.60
2023-04-29T11:00:13.663Z,3.90
2023-04-29T11:01:12.731Z,3.10
2023-04-29T11:02:12.599Z,3.10
2023-04-29T11:03:13.080Z,2.60
2023-04-29T11:04:12.924Z,3.40
2023-04-29T11:05:13.341Z,4.80
2023-04-29T11:06:13.724Z,3.40
2023-04-29T11:07:14.129Z,3.10
2023-04-29T11:08:14.531Z,4.20
2023-04-29T11:09:14.967Z,4.60
2023-04-29T11:10:15.395Z,2.90
2023-04-29T11:11:15.821Z,3.20
2023-04-29T11:12:16.229Z,2.70
2023-04-29T11:13:16.646Z,3.50
2023-04-29T11:14:17.069Z,3.70
2023-04-29T11:15:17.496Z,3.60
2023-04-29T11:16:17.955Z,5.60
2023-04-29T11:17:17.827Z,3.90
2023-04-29T11:18:18.387Z,3.20
2023-04-29T11:19:18.285Z,2.70
2023-04-29T11:20:18.696Z,3.70
2023-04-29T11:21:19.078Z,3.30
2023-04-29T11:22:19.465Z,3.00
2023-04-29T11:23:19.860Z,3.80
2023-04-29T11:24:20.246Z,3.50
2023-04-29T11:25:20.606Z,4.50
2023-04-29T11:26:20.966Z,2.40
2023-04-29T11:27:21.336Z,3.80
2023-04-29T11:28:21.733Z,2.00
2023-04-29T11:29:22.127Z,2.50
2023-04-29T11:30:22.529Z,2.20
2023-04-29T11:31:22.921Z,3.10
2023-04-29T11:32:23.408Z,1.70
2023-04-29T11:33:23.291Z,1.70
2023-04-29T11:34:23.120Z,2.10
2023-04-29T11:35:23.494Z,3.10
2023-04-29T11:36:23.874Z,10.40
2023-04-29T11:37:24.260Z,3.20
2023-04-29T11:38:24.627Z,3.90
2023-04-29T11:39:24.982Z,2.20
2023-04-29T11:40:25.331Z,4.10
2023-04-29T11:41:25.684Z,2.40
2023-04-29T11:42:26.024Z,2.20
2023-04-29T11:43:26.377Z,2.20
2023-04-29T11:44:26.719Z,2.80
2023-04-29T11:45:27.084Z,4.40
2023-04-29T11:46:27.465Z,1.70
2023-04-29T11:47:27.262Z,3.20
2023-04-29T11:48:27.590Z,4.00
2023-04-29T11:49:27.920Z,2.70
2023-04-29T11:50:28.257Z,3.60
2023-04-29T11:51:28.609Z,2.40
2023-04-29T11:52:28.968Z,3.20
2023-04-29T11:53:29.314Z,3.40
2023-04-29T11:54:29.661Z,1.90
2023-04-29T11:55:30.009Z,1.70
2023-04-29T11:56:30.369Z,1.80
2023-04-29T11:57:30.704Z,1.70
2023-04-29T11:58:31.039Z,3.00
2023-04-29T11:59:31.367Z,2.50
2023-04-29T12:00:31.688Z,2.50
2023-04-29T12:01:32.012Z,3.90
2023-04-29T12:02:32.528Z,2.30
2023-04-29T12:03:32.570Z,4.00
2023-04-29T12:04:32.410Z,2.50
2023-04-29T12:05:32.431Z,1.70
2023-04-29T12:06:32.148Z,4.90
2023-04-29T12:07:32.425Z,2.80
2023-04-29T12:08:32.701Z,1.50
2023-04-29T12:09:32.967Z,2.90
2023-04-29T12:10:33.261Z,4.30
2023-04-29T12:11:33.537Z,1.90
2023-04-29T12:12:33.800Z,2.80
2023-04-29T12:13:34.065Z,2.50
2023-04-29T12:14:34.344Z,2.10
2023-04-29T12:15:34.618Z,1.90
2023-04-29T12:16:34.978Z,2.50
2023-04-29T12:17:34.748Z,3.00
2023-04-29T12:18:35.073Z,2.10
2023-04-29T12:19:35.373Z,2.50
2023-04-29T12:20:35.711Z,3.00
2023-04-29T12:21:36.032Z,3.80
2023-04-29T12:22:36.368Z,2.20
2023-04-29T12:23:36.690Z,3.80
2023-04-29T12:24:36.982Z,2.80
2023-04-29T12:25:37.272Z,2.20
2023-04-29T12:26:37.568Z,3.80
2023-04-29T12:27:37.873Z,1.90
2023-04-29T12:28:38.176Z,2.30
2023-04-29T12:29:38.496Z,2.60
2023-04-29T12:30:38.796Z,3.30
2023-04-29T12:31:39.079Z,1.40
2023-04-29T12:32:38.872Z,2.70
2023-04-29T12:33:38.572Z,1.50
2023-04-29T12:34:38.830Z,5.00
2023-04-29T12:35:39.095Z,3.00
2023-04-29T12:36:39.354Z,2.60
2023-04-29T12:37:39.592Z,3.40
2023-04-29T12:38:39.868Z,3.80
2023-04-29T12:39:40.130Z,2.20
2023-04-29T12:40:40.390Z,3.00
2023-04-29T12:41:40.650Z,2.50
2023-04-29T12:42:40.899Z,3.30
2023-04-29T12:43:41.137Z,1.80
2023-04-29T12:44:41.434Z,2.00
2023-04-29T12:45:41.689Z,1.70
2023-04-29T12:46:41.979Z,1.50
2023-04-29T12:47:41.703Z,2.70
2023-04-29T12:48:42.030Z,2.40
2023-04-29T12:49:41.727Z,2.80
2023-04-29T12:50:41.964Z,2.40
2023-04-29T12:51:43.079Z,1.70
2023-04-29T12:52:48.197Z,1.70
2023-04-29T12:53:42.181Z,2.20
2023-04-29T12:54:42.443Z,1.60
2023-04-29T12:55:42.405Z,1.70
2023-04-29T12:56:42.096Z,1.70
2023-04-29T12:57:42.332Z,2.40
2023-04-29T12:58:42.605Z,3.50
2023-04-29T12:59:42.860Z,2.10
2023-04-29T13:00:43.133Z,2.20
2023-04-29T13:01:43.419Z,3.30
2023-04-29T13:02:43.251Z,2.50
2023-04-29T13:03:43.120Z,2.90
2023-04-29T13:04:43.993Z,2.40
2023-04-29T13:05:42.713Z,2.20
2023-04-29T13:06:43.043Z,3.40
2023-04-29T13:07:43.349Z,2.60
2023-04-29T13:08:43.667Z,4.40
2023-04-29T13:09:43.979Z,3.70